createdAt,value
2018-02-13T00:00:07.857Z,1009.33
2018-02-13T00:01:07.836Z,1009.30
2018-02-13T00:02:07.808Z,1009.30
2018-02-13T00:03:07.789Z,1009.26
2018-02-13T00:04:07.765Z,1009.26
2018-02-13T00:05:07.741Z,1009.24
2018-02-13T00:06:07.719Z,1009.24
2018-02-13T00:07:07.687Z,1009.24
2018-02-13T00:08:07.668Z,1009.27
2018-02-13T00:09:07.644Z,1009.27
2018-02-13T00:10:07.625Z,1009.27
2018-02-13T00:11:07.603Z,1009.25
2018-02-13T00:12:07.574Z,1009.28
2018-02-13T00:13:07.549Z,1009.26
2018-02-13T00:14:07.526Z,1009.28
2018-02-13T00:15:07.511Z,1009.30
2018-02-13T00:16:07.477Z,1009.31
2018-02-13T00:17:07.447Z,1009.30
2018-02-13T00:18:07.426Z,1009.31
2018-02-13T00:19:07.400Z,1009.32
2018-02-13T00:20:07.378Z,1009.32
2018-02-13T00:21:07.357Z,1009.30
2018-02-13T00:22:07.329Z,1009.29
2018-02-13T00:23:07.320Z,1009.30
2018-02-13T00:24:07.282Z,1009.27
2018-02-13T00:25:07.258Z,1009.26
2018-02-13T00:26:07.237Z,1009.30
2018-02-13T00:27:07.214Z,1009.29
2018-02-13T00:28:07.185Z,1009.30
2018-02-13T00:29:07.166Z,1009.28
2018-02-13T00:30:07.138Z,1009.30
2018-02-13T00:31:07.112Z,1009.30
2018-02-13T00:32:07.093Z,1009.25
2018-02-13T00:33:07.067Z,1009.29
2018-02-13T00:34:07.048Z,1009.33
2018-02-13T00:35:07.017Z,1009.32
2018-02-13T00:36:07.001Z,1009.30
2018-02-13T00:37:06.973Z,1009.34
2018-02-13T00:38:06.947Z,1009.32
2018-02-13T00:39:06.927Z,1009.28
2018-02-13T00:40:06.902Z,1009.27
2018-02-13T00:41:06.877Z,1009.28
2018-02-13T00:42:06.856Z,1009.29
2018-02-13T00:43:06.826Z,1009.29
2018-02-13T00:44:06.808Z,1009.28
2018-02-13T00:45:06.784Z,1009.25
2018-02-13T00:46:06.770Z,1009.27
2018-02-13T00:47:06.747Z,1009.25
2018-02-13T00:48:06.709Z,1009.23
2018-02-13T00:49:06.687Z,1009.24
2018-02-13T00:50:06.665Z,1009.19
2018-02-13T00:51:06.636Z,1009.19
2018-02-13T00:52:06.611Z,1009.16
2018-02-13T00:53:06.596Z,1009.20
2018-02-13T00:54:06.578Z,1009.16
2018-02-13T00:55:06.547Z,1009.17
2018-02-13T00:56:06.529Z,1009.16
2018-02-13T00:57:06.498Z,1009.15
2018-02-13T00:58:06.486Z,1009.08
2018-02-13T00:59:06.444Z,1009.16
2018-02-13T01:00:06.421Z,1009.15
2018-02-13T01:01:06.399Z,1009.16
2018-02-13T01:02:06.377Z,1009.14
2018-02-13T01:03:06.371Z,1009.12
2018-02-13T01:04:06.326Z,1009.17
2018-02-13T01:05:06.311Z,1009.13
2018-02-13T01:06:06.282Z,1009.15
2018-02-13T01:07:06.256Z,1009.13
2018-02-13T01:08:06.239Z,1009.13
2018-02-13T01:09:06.207Z,1009.10
2018-02-13T01:10:06.198Z,1009.11
2018-02-13T01:11:06.165Z,1009.15
2018-02-13T01:12:06.147Z,1009.14
2018-02-13T01:13:06.118Z,1009.13
2018-02-13T01:14:06.094Z,1009.15
2018-02-13T01:15:06.067Z,1009.14
2018-02-13T01:16:06.054Z,1009.09
2018-02-13T01:17:06.017Z,1009.10
2018-02-13T01:18:05.996Z,1009.10
2018-02-13T01:19:05.976Z,1009.11
2018-02-13T01:20:05.954Z,1009.13
2018-02-13T01:21:05.930Z,1009.10
2018-02-13T01:22:05.903Z,1009.08
2018-02-13T01:23:05.880Z,1009.09
2018-02-13T01:24:05.856Z,1009.12
2018-02-13T01:25:05.831Z,1009.15
2018-02-13T01:26:05.808Z,1009.13
2018-02-13T01:27:05.786Z,1009.12
2018-02-13T01:28:05.757Z,1009.10
2018-02-13T01:29:05.735Z,1009.12
2018-02-13T01:30:05.714Z,1009.15
2018-02-13T01:31:05.698Z,1009.10
2018-02-13T01:32:05.664Z,1009.11
2018-02-13T01:33:05.644Z,1009.12
2018-02-13T01:34:05.617Z,1009.11
2018-02-13T01:35:05.593Z,1009.14
2018-02-13T01:36:05.577Z,1009.13
2018-02-13T01:37:05.550Z,1009.12
2018-02-13T01:38:05.521Z,1009.10
2018-02-13T01:39:05.502Z,1009.14
2018-02-13T01:40:05.474Z,1009.11
2018-02-13T01:41:05.453Z,1009.11
2018-02-13T01:42:05.426Z,1009.11
2018-02-13T01:43:05.406Z,1009.11
2018-02-13T01:44:05.377Z,1009.08
2018-02-13T01:45:05.355Z,1009.06
2018-02-13T01:46:05.330Z,1009.09
2018-02-13T01:47:05.308Z,1009.11
2018-02-13T01:48:05.281Z,1009.11
2018-02-13T01:49:05.268Z,1009.14
2018-02-13T01:50:05.243Z,1009.12
2018-02-13T01:51:05.214Z,1009.12
2018-02-13T01:52:05.193Z,1009.15
2018-02-13T01:53:05.166Z,1009.14
2018-02-13T01:54:05.144Z,1009.12
2018-02-13T01:55:05.116Z,1009.12
2018-02-13T01:56:05.101Z,1009.12
2018-02-13T01:57:05.069Z,1009.15
2018-02-13T01:58:05.048Z,1009.16
2018-02-13T01:59:05.023Z,1009.11
2018-02-13T02:00:04.997Z,1009.11
2018-02-13T02:01:04.974Z,1009.10
2018-02-13T02:02:04.951Z,1009.09
2018-02-13T02:03:04.931Z,1009.10
2018-02-13T02:04:04.902Z,1009.08
2018-02-13T02:05:04.877Z,1009.07
2018-02-13T02:06:04.856Z,1009.05
2018-02-13T02:07:04.832Z,1009.05
2018-02-13T02:08:04.807Z,1009.05
2018-02-13T02:09:04.784Z,1009.07
2018-02-13T02:10:04.760Z,1009.04
2018-02-13T02:11:04.736Z,1009.02
2018-02-13T02:12:04.711Z,1009.03
2018-02-13T02:13:04.688Z,1009.01
2018-02-13T02:14:04.663Z,1009.03
2018-02-13T02:15:04.639Z,1008.99
2018-02-13T02:16:04.617Z,1009.03
2018-02-13T02:17:04.593Z,1009.04
2018-02-13T02:18:04.567Z,1009.05
2018-02-13T02:19:04.543Z,1008.99
2018-02-13T02:20:04.526Z,1009.03
2018-02-13T02:21:04.495Z,1009.01
2018-02-13T02:22:04.473Z,1009.00
2018-02-13T02:23:04.448Z,1008.99
2018-02-13T02:24:04.426Z,1008.98
2018-02-13T02:25:04.397Z,1008.98
2018-02-13T02:26:04.377Z,1008.96
2018-02-13T02:27:04.356Z,1008.94
2018-02-13T02:28:04.326Z,1008.97
2018-02-13T02:29:04.307Z,1008.94
2018-02-13T02:30:04.287Z,1008.92
2018-02-13T02:31:04.257Z,1008.93
2018-02-13T02:32:04.234Z,1008.91
2018-02-13T02:33:04.207Z,1008.87
2018-02-13T02:34:04.182Z,1008.89
2018-02-13T02:35:04.159Z,1008.90
2018-02-13T02:36:04.137Z,1008.86
2018-02-13T02:37:04.109Z,1008.84
2018-02-13T02:38:04.084Z,1008.85
2018-02-13T02:39:04.066Z,1008.88
2018-02-13T02:40:04.040Z,1008.88
2018-02-13T02:41:04.014Z,1008.85
2018-02-13T02:42:03.998Z,1008.85
2018-02-13T02:43:03.966Z,1008.82
2018-02-13T02:44:03.941Z,1008.82
2018-02-13T02:45:03.921Z,1008.80
2018-02-13T02:46:03.893Z,1008.80
2018-02-13T02:47:03.871Z,1008.79
2018-02-13T02:48:03.851Z,1008.83
2018-02-13T02:49:03.826Z,1008.85
2018-02-13T02:50:03.797Z,1008.86
2018-02-13T02:51:03.774Z,1008.82
2018-02-13T02:52:03.752Z,1008.83
2018-02-13T02:53:03.732Z,1008.78
2018-02-13T02:54:03.704Z,1008.82
2018-02-13T02:55:03.679Z,1008.80
2018-02-13T02:56:03.656Z,1008.75
2018-02-13T02:57:03.633Z,1008.75
2018-02-13T02:58:03.606Z,1008.79
2018-02-13T02:59:03.586Z,1008.76
2018-02-13T03:00:03.561Z,1008.78
2018-02-13T03:01:03.536Z,1008.77
2018-02-13T03:02:03.513Z,1008.73
2018-02-13T03:03:03.487Z,1008.73
2018-02-13T03:04:03.464Z,1008.75
2018-02-13T03:05:03.446Z,1008.75
2018-02-13T03:06:03.416Z,1008.76
2018-02-13T03:07:03.398Z,1008.76
2018-02-13T03:08:03.367Z,1008.75
2018-02-13T03:09:03.346Z,1008.72
2018-02-13T03:10:03.326Z,1008.70
2018-02-13T03:11:03.299Z,1008.69
2018-02-13T03:12:03.274Z,1008.67
2018-02-13T03:13:03.251Z,1008.67
2018-02-13T03:14:03.227Z,1008.66
2018-02-13T03:15:03.203Z,1008.62
2018-02-13T03:16:03.182Z,1008.65
2018-02-13T03:17:03.155Z,1008.63
2018-02-13T03:18:03.131Z,1008.61
2018-02-13T03:19:03.108Z,1008.64
2018-02-13T03:20:03.085Z,1008.66
2018-02-13T03:21:03.057Z,1008.60
2018-02-13T03:22:03.037Z,1008.61
2018-02-13T03:23:03.020Z,1008.64
2018-02-13T03:24:02.987Z,1008.60
2018-02-13T03:25:02.965Z,1008.57
2018-02-13T03:26:02.941Z,1008.59
2018-02-13T03:27:02.915Z,1008.58
2018-02-13T03:28:02.894Z,1008.57
2018-02-13T03:29:02.867Z,1008.59
2018-02-13T03:30:02.848Z,1008.58
2018-02-13T03:31:02.822Z,1008.61
2018-02-13T03:32:02.799Z,1008.60
2018-02-13T03:33:02.781Z,1008.58
2018-02-13T03:34:02.751Z,1008.58
2018-02-13T03:35:02.731Z,1008.62
2018-02-13T03:36:02.703Z,1008.57
2018-02-13T03:37:02.676Z,1008.56
2018-02-13T03:38:02.655Z,1008.58
2018-02-13T03:39:02.632Z,1008.56
2018-02-13T03:40:02.606Z,1008.56
2018-02-13T03:41:02.585Z,1008.55
2018-02-13T03:42:02.558Z,1008.52
2018-02-13T03:43:02.536Z,1008.53
2018-02-13T03:44:02.516Z,1008.52
2018-02-13T03:45:02.490Z,1008.52
2018-02-13T03:46:02.465Z,1008.53
2018-02-13T03:47:02.442Z,1008.54
2018-02-13T03:48:02.417Z,1008.50
2018-02-13T03:49:02.394Z,1008.50
2018-02-13T03:50:02.367Z,1008.50
2018-02-13T03:51:02.345Z,1008.45
2018-02-13T03:52:02.325Z,1008.46
2018-02-13T03:53:02.300Z,1008.48
2018-02-13T03:54:02.274Z,1008.41
2018-02-13T03:55:02.247Z,1008.42
2018-02-13T03:56:02.226Z,1008.45
2018-02-13T03:57:02.203Z,1008.43
2018-02-13T03:58:02.181Z,1008.43
2018-02-13T03:59:02.155Z,1008.46
2018-02-13T04:00:02.132Z,1008.48
2018-02-13T04:01:02.104Z,1008.46
2018-02-13T04:02:02.083Z,1008.48
2018-02-13T04:03:02.057Z,1008.40
2018-02-13T04:04:02.034Z,1008.40
2018-02-13T04:05:02.013Z,1008.39
2018-02-13T04:06:01.987Z,1008.38
2018-02-13T04:07:01.973Z,1008.36
2018-02-13T04:08:01.938Z,1008.34
2018-02-13T04:09:01.921Z,1008.36
2018-02-13T04:10:01.892Z,1008.34
2018-02-13T04:11:01.880Z,1008.35
2018-02-13T04:12:01.845Z,1008.35
2018-02-13T04:13:01.818Z,1008.35
2018-02-13T04:14:01.803Z,1008.31
2018-02-13T04:15:01.783Z,1008.30
2018-02-13T04:16:01.749Z,1008.30
2018-02-13T04:17:01.730Z,1008.28
2018-02-13T04:18:01.700Z,1008.28
2018-02-13T04:19:01.683Z,1008.30
2018-02-13T04:20:01.655Z,1008.27
2018-02-13T04:21:01.632Z,1008.27
2018-02-13T04:22:01.608Z,1008.27
2018-02-13T04:23:01.587Z,1008.27
2018-02-13T04:24:01.557Z,1008.24
2018-02-13T04:25:01.535Z,1008.21
2018-02-13T04:26:01.511Z,1008.20
2018-02-13T04:27:01.489Z,1008.20
2018-02-13T04:28:01.461Z,1008.20
2018-02-13T04:29:01.438Z,1008.21
2018-02-13T04:30:01.415Z,1008.19
2018-02-13T04:31:01.394Z,1008.21
2018-02-13T04:32:01.366Z,1008.23
2018-02-13T04:33:01.345Z,1008.22
2018-02-13T04:34:01.321Z,1008.28
2018-02-13T04:35:01.298Z,1008.24
2018-02-13T04:36:01.272Z,1008.35
2018-02-13T04:37:01.247Z,1008.37
2018-02-13T04:38:01.228Z,1008.38
2018-02-13T04:39:01.206Z,1008.32
2018-02-13T04:40:01.176Z,1008.31
2018-02-13T04:41:01.155Z,1008.28
2018-02-13T04:42:01.136Z,1008.26
2018-02-13T04:43:01.107Z,1008.21
2018-02-13T04:44:01.085Z,1008.21
2018-02-13T04:45:01.060Z,1008.22
2018-02-13T04:46:01.037Z,1008.22
2018-02-13T04:47:01.015Z,1008.24
2018-02-13T04:48:00.990Z,1008.23
2018-02-13T04:49:00.963Z,1008.21
2018-02-13T04:50:00.938Z,1008.23
2018-02-13T04:51:00.915Z,1008.22
2018-02-13T04:52:00.892Z,1008.19
2018-02-13T04:53:00.867Z,1008.23
2018-02-13T04:54:00.895Z,1008.17
2018-02-13T04:55:00.820Z,1008.19
2018-02-13T04:56:00.798Z,1008.17
2018-02-13T04:57:00.772Z,1008.19
2018-02-13T04:58:00.750Z,1008.18
2018-02-13T04:59:00.728Z,1008.16
2018-02-13T05:00:00.702Z,1008.12
2018-02-13T05:01:00.703Z,1008.13
2018-02-13T05:02:00.662Z,1008.16
2018-02-13T05:03:00.627Z,1008.10
2018-02-13T05:04:00.606Z,1008.12
2018-02-13T05:05:00.582Z,1008.10
2018-02-13T05:06:00.555Z,1008.09
2018-02-13T05:07:00.532Z,1008.11
2018-02-13T05:08:00.511Z,1008.11
2018-02-13T05:09:00.486Z,1008.11
2018-02-13T05:10:00.778Z,1008.10
2018-02-13T05:11:00.438Z,1008.08
2018-02-13T05:12:00.419Z,1008.11
2018-02-13T05:13:00.394Z,1008.04
2018-02-13T05:14:00.375Z,1008.05
2018-02-13T05:15:00.344Z,1008.06
2018-02-13T05:16:00.321Z,1008.05
2018-02-13T05:17:00.319Z,1008.06
2018-02-13T05:18:00.271Z,1008.02
2018-02-13T05:19:00.247Z,1008.03
2018-02-13T05:20:00.224Z,1008.01
2018-02-13T05:21:00.198Z,1008.03
2018-02-13T05:22:00.175Z,1008.03
2018-02-13T05:23:00.157Z,1008.03
2018-02-13T05:24:00.127Z,1008.06
2018-02-13T05:25:00.106Z,1008.02
2018-02-13T05:26:00.082Z,1008.00
2018-02-13T05:27:00.055Z,1008.04
2018-02-13T05:28:00.036Z,1008.02
2018-02-13T05:29:00.011Z,1007.98
2018-02-13T05:29:59.987Z,1008.01
2018-02-13T05:30:59.962Z,1008.00
2018-02-13T05:31:59.935Z,1008.01
2018-02-13T05:32:59.915Z,1008.03
2018-02-13T05:33:59.890Z,1008.02
2018-02-13T05:34:59.867Z,1008.09
2018-02-13T05:35:59.843Z,1008.09
2018-02-13T05:36:59.817Z,1008.06
2018-02-13T05:37:59.792Z,1008.03
2018-02-13T05:38:59.772Z,1008.07
2018-02-13T05:40:00.066Z,1008.06
2018-02-13T05:40:59.721Z,1008.09
2018-02-13T05:41:59.697Z,1008.06
2018-02-13T05:42:59.676Z,1008.06
2018-02-13T05:43:59.654Z,1008.05
2018-02-13T05:44:59.631Z,1008.04
2018-02-13T05:45:59.606Z,1008.07
2018-02-13T05:46:59.591Z,1008.08
2018-02-13T05:47:59.554Z,1008.06
2018-02-13T05:48:59.532Z,1008.06
2018-02-13T05:49:59.504Z,1008.05
2018-02-13T05:50:59.535Z,1008.02
2018-02-13T05:51:59.462Z,1008.04
2018-02-13T05:52:59.432Z,1008.04
2018-02-13T05:53:59.416Z,1008.07
2018-02-13T05:54:59.387Z,1008.06
2018-02-13T05:55:59.368Z,1008.09
2018-02-13T05:56:59.345Z,1008.06
2018-02-13T05:57:59.322Z,1008.05
2018-02-13T05:58:59.298Z,1008.04
2018-02-13T05:59:59.264Z,1008.06
2018-02-13T06:00:59.238Z,1008.04
2018-02-13T06:01:59.220Z,1008.03
2018-02-13T06:02:59.192Z,1008.06
2018-02-13T06:03:59.169Z,1008.06
2018-02-13T06:04:59.144Z,1008.09
2018-02-13T06:05:59.121Z,1008.07
2018-02-13T06:06:59.101Z,1008.05
2018-02-13T06:07:59.072Z,1008.08
2018-02-13T06:08:59.052Z,1008.04
2018-02-13T06:09:59.026Z,1008.04
2018-02-13T06:10:59.001Z,1008.04
2018-02-13T06:11:58.978Z,1008.06
2018-02-13T06:12:58.954Z,1008.05
2018-02-13T06:13:58.930Z,1008.07
2018-02-13T06:14:58.911Z,1008.04
2018-02-13T06:15:58.883Z,1008.01
2018-02-13T06:16:58.856Z,1008.00
2018-02-13T06:17:58.835Z,1008.01
2018-02-13T06:18:58.811Z,1008.00
2018-02-13T06:19:58.790Z,1007.98
2018-02-13T06:20:58.764Z,1008.00
2018-02-13T06:21:58.735Z,1008.02
2018-02-13T06:22:58.711Z,1007.97
2018-02-13T06:23:58.686Z,1008.00
2018-02-13T06:24:58.678Z,1007.97
2018-02-13T06:25:58.643Z,1008.01
2018-02-13T06:26:58.620Z,1008.01
2018-02-13T06:27:58.596Z,1008.01
2018-02-13T06:28:58.566Z,1008.02
2018-02-13T06:29:58.544Z,1008.05
2018-02-13T06:30:58.529Z,1008.01
2018-02-13T06:31:58.501Z,1008.03
2018-02-13T06:32:58.785Z,1008.06
2018-02-13T06:33:58.448Z,1008.01
2018-02-13T06:34:58.431Z,1008.02
2018-02-13T06:35:58.399Z,1007.99
2018-02-13T06:36:58.377Z,1007.98
2018-02-13T06:37:58.357Z,1007.97
2018-02-13T06:38:58.328Z,1008.01
2018-02-13T06:39:58.301Z,1007.96
2018-02-13T06:40:58.279Z,1007.96
2018-02-13T06:41:58.263Z,1007.96
2018-02-13T06:42:58.231Z,1007.93
2018-02-13T06:43:58.207Z,1007.90
2018-02-13T06:44:58.184Z,1007.92
2018-02-13T06:45:58.160Z,1007.91
2018-02-13T06:46:58.139Z,1007.90
2018-02-13T06:47:58.114Z,1007.90
2018-02-13T06:48:58.088Z,1007.91
2018-02-13T06:49:58.063Z,1007.92
2018-02-13T06:50:58.042Z,1007.89
2018-02-13T06:51:58.017Z,1007.92
2018-02-13T06:52:57.994Z,1007.93
2018-02-13T06:53:57.969Z,1007.93
2018-02-13T06:54:57.944Z,1007.96
2018-02-13T06:55:57.923Z,1007.97
2018-02-13T06:56:57.897Z,1007.95
2018-02-13T06:57:57.873Z,1007.97
2018-02-13T06:58:57.847Z,1007.94
2018-02-13T06:59:57.824Z,1007.97
2018-02-13T07:00:57.797Z,1007.95
2018-02-13T07:01:57.773Z,1007.97
2018-02-13T07:02:57.754Z,1007.92
2018-02-13T07:03:57.728Z,1007.99
2018-02-13T07:04:57.702Z,1007.97
2018-02-13T07:05:57.677Z,1007.98
2018-02-13T07:06:57.654Z,1007.99
2018-02-13T07:07:57.642Z,1007.97
2018-02-13T07:08:57.604Z,1007.98
2018-02-13T07:09:57.581Z,1007.95
2018-02-13T07:10:57.857Z,1007.96
2018-02-13T07:11:57.533Z,1007.93
2018-02-13T07:12:57.507Z,1007.97
2018-02-13T07:13:57.484Z,1007.98
2018-02-13T07:14:57.460Z,1007.95
2018-02-13T07:15:57.438Z,1008.00
2018-02-13T07:16:57.423Z,1007.99
2018-02-13T07:17:57.387Z,1007.98
2018-02-13T07:18:57.369Z,1007.95
2018-02-13T07:19:57.344Z,1007.94
2018-02-13T07:20:57.316Z,1007.93
2018-02-13T07:21:57.293Z,1007.93
2018-02-13T07:22:57.267Z,1007.93
2018-02-13T07:23:57.246Z,1007.91
2018-02-13T07:24:57.223Z,1007.91
2018-02-13T07:25:57.197Z,1007.91
2018-02-13T07:26:57.183Z,1007.93
2018-02-13T07:27:57.151Z,1007.95
2018-02-13T07:28:57.129Z,1007.93
2018-02-13T07:29:57.104Z,1007.95
2018-02-13T07:30:57.078Z,1007.94
2018-02-13T07:31:57.056Z,1007.96
2018-02-13T07:32:57.027Z,1007.92
2018-02-13T07:33:57.011Z,1007.96
2018-02-13T07:34:56.983Z,1007.92
2018-02-13T07:35:56.957Z,1007.95
2018-02-13T07:36:56.931Z,1007.95
2018-02-13T07:37:56.907Z,1007.97
2018-02-13T07:38:56.883Z,1007.92
2018-02-13T07:39:56.857Z,1007.97
2018-02-13T07:40:56.834Z,1007.95
2018-02-13T07:41:56.816Z,1007.96
2018-02-13T07:42:56.790Z,1007.95
2018-02-13T07:43:56.770Z,1007.95
2018-02-13T07:44:56.741Z,1007.92
2018-02-13T07:45:56.715Z,1007.91
2018-02-13T07:46:56.691Z,1007.90
2018-02-13T07:47:56.669Z,1007.92
2018-02-13T07:48:56.643Z,1007.92
2018-02-13T07:49:56.618Z,1007.96
2018-02-13T07:50:56.603Z,1007.93
2018-02-13T07:51:56.568Z,1007.92
2018-02-13T07:52:56.548Z,1007.91
2018-02-13T07:53:56.523Z,1007.94
2018-02-13T07:54:56.499Z,1007.93
2018-02-13T07:55:56.471Z,1007.90
2018-02-13T07:56:56.448Z,1007.95
2018-02-13T07:57:56.427Z,1007.93
2018-02-13T07:58:56.398Z,1007.97
2018-02-13T07:59:56.380Z,1007.96
2018-02-13T08:00:56.356Z,1007.94
2018-02-13T08:01:56.330Z,1007.95
2018-02-13T08:02:56.302Z,1007.94
2018-02-13T08:03:56.286Z,1007.97
2018-02-13T08:04:56.267Z,1007.92
2018-02-13T08:05:56.231Z,1007.95
2018-02-13T08:06:56.205Z,1007.93
2018-02-13T08:07:56.181Z,1007.92
2018-02-13T08:08:56.158Z,1007.95
2018-02-13T08:09:56.133Z,1007.94
2018-02-13T08:10:56.116Z,1007.90
2018-02-13T08:11:56.087Z,1007.89
2018-02-13T08:12:56.063Z,1007.89
2018-02-13T08:13:56.037Z,1007.89
2018-02-13T08:14:56.031Z,1007.86
2018-02-13T08:15:55.990Z,1007.89
2018-02-13T08:16:55.979Z,1007.90
2018-02-13T08:17:55.944Z,1007.89
2018-02-13T08:18:55.919Z,1007.92
2018-02-13T08:19:55.896Z,1007.86
2018-02-13T08:20:55.874Z,1007.83
2018-02-13T08:21:55.849Z,1007.88
2018-02-13T08:22:55.826Z,1007.89
2018-02-13T08:23:55.800Z,1007.91
2018-02-13T08:24:55.779Z,1007.85
2018-02-13T08:25:55.756Z,1007.91
2018-02-13T08:26:55.727Z,1007.90
2018-02-13T08:27:55.705Z,1007.91
2018-02-13T08:28:55.680Z,1007.88
2018-02-13T08:29:55.657Z,1007.87
2018-02-13T08:30:55.632Z,1007.85
2018-02-13T08:31:55.619Z,1007.86
2018-02-13T08:32:55.585Z,1007.84
2018-02-13T08:33:55.564Z,1007.84
2018-02-13T08:34:55.541Z,1007.81
2018-02-13T08:35:55.517Z,1007.83
2018-02-13T08:36:55.486Z,1007.86
2018-02-13T08:37:55.466Z,1007.79
2018-02-13T08:38:55.446Z,1007.85
2018-02-13T08:39:55.426Z,1007.78
2018-02-13T08:40:55.399Z,1007.81
2018-02-13T08:41:55.368Z,1007.80
2018-02-13T08:42:55.345Z,1007.78
2018-02-13T08:43:55.323Z,1007.79
2018-02-13T08:44:55.296Z,1007.76
2018-02-13T08:45:55.271Z,1007.80
2018-02-13T08:46:55.248Z,1007.81
2018-02-13T08:47:55.224Z,1007.71
2018-02-13T08:48:55.208Z,1007.72
2018-02-13T08:49:55.177Z,1007.75
2018-02-13T08:50:55.155Z,1007.76
2018-02-13T08:51:55.130Z,1007.77
2018-02-13T08:52:55.111Z,1007.78
2018-02-13T08:53:55.079Z,1007.78
2018-02-13T08:54:55.058Z,1007.76
2018-02-13T08:55:55.039Z,1007.75
2018-02-13T08:56:55.014Z,1007.72
2018-02-13T08:57:54.982Z,1007.71
2018-02-13T08:58:54.962Z,1007.74
2018-02-13T08:59:54.937Z,1007.71
2018-02-13T09:00:54.913Z,1007.71
2018-02-13T09:01:54.891Z,1007.71
2018-02-13T09:02:54.868Z,1007.75
2018-02-13T09:03:54.851Z,1007.74
2018-02-13T09:04:54.818Z,1007.76
2018-02-13T09:05:54.798Z,1007.73
2018-02-13T09:06:54.781Z,1007.71
2018-02-13T09:07:54.747Z,1007.77
2018-02-13T09:08:54.722Z,1007.77
2018-02-13T09:09:54.700Z,1007.74
2018-02-13T09:10:54.678Z,1007.69
2018-02-13T09:11:54.663Z,1007.68
2018-02-13T09:12:54.630Z,1007.75
2018-02-13T09:13:54.607Z,1007.71
2018-02-13T09:14:54.585Z,1007.73
2018-02-13T09:15:54.556Z,1007.70
2018-02-13T09:16:54.539Z,1007.70
2018-02-13T09:17:54.518Z,1007.70
2018-02-13T09:18:54.486Z,1007.67
2018-02-13T09:19:54.473Z,1007.69
2018-02-13T09:20:54.437Z,1007.72
2018-02-13T09:21:54.418Z,1007.66
2018-02-13T09:22:54.402Z,1007.67
2018-02-13T09:23:54.405Z,1007.65
2018-02-13T09:24:54.351Z,1007.65
2018-02-13T09:25:54.323Z,1007.64
2018-02-13T09:26:54.302Z,1007.65
2018-02-13T09:27:54.275Z,1007.70
2018-02-13T09:28:54.251Z,1007.65
2018-02-13T09:29:54.224Z,1007.68
2018-02-13T09:30:54.207Z,1007.65
2018-02-13T09:31:54.181Z,1007.66
2018-02-13T09:32:54.158Z,1007.63
2018-02-13T09:33:54.142Z,1007.62
2018-02-13T09:34:54.111Z,1007.63
2018-02-13T09:35:54.088Z,1007.57
2018-02-13T09:36:54.058Z,1007.57
2018-02-13T09:37:54.037Z,1007.56
2018-02-13T09:38:54.010Z,1007.55
2018-02-13T09:39:53.990Z,1007.52
2018-02-13T09:40:53.966Z,1007.53
2018-02-13T09:41:53.944Z,1007.52
2018-02-13T09:42:53.927Z,1007.54
2018-02-13T09:43:53.907Z,1007.56
2018-02-13T09:44:53.871Z,1007.53
2018-02-13T09:45:53.847Z,1007.50
2018-02-13T09:46:53.830Z,1007.51
2018-02-13T09:47:53.799Z,1007.48
2018-02-13T09:48:53.776Z,1007.49
2018-02-13T09:49:53.752Z,1007.53
2018-02-13T09:50:53.731Z,1007.48
2018-02-13T09:51:53.709Z,1007.52
2018-02-13T09:52:53.679Z,1007.51
2018-02-13T09:53:53.675Z,1007.53
2018-02-13T09:54:53.639Z,1007.48
2018-02-13T09:55:53.614Z,1007.46
2018-02-13T09:56:53.598Z,1007.49
2018-02-13T09:57:53.566Z,1007.48
2018-02-13T09:58:53.556Z,1007.48
2018-02-13T09:59:53.532Z,1007.44
2018-02-13T10:00:53.497Z,1007.45
2018-02-13T10:01:53.475Z,1007.40
2018-02-13T10:02:53.450Z,1007.42
2018-02-13T10:03:53.430Z,1007.45
2018-02-13T10:04:53.402Z,1007.43
2018-02-13T10:05:53.386Z,1007.46
2018-02-13T10:06:53.374Z,1007.37
2018-02-13T10:07:53.331Z,1007.37
2018-02-13T10:08:53.310Z,1007.44
2018-02-13T10:09:53.287Z,1007.47
2018-02-13T10:10:53.274Z,1007.39
2018-02-13T10:11:53.239Z,1007.39
2018-02-13T10:12:53.214Z,1007.38
2018-02-13T10:13:53.188Z,1007.41
2018-02-13T10:14:53.169Z,1007.35
2018-02-13T10:15:53.150Z,1007.39
2018-02-13T10:16:53.130Z,1007.42
2018-02-13T10:17:53.098Z,1007.38
2018-02-13T10:18:53.076Z,1007.38
2018-02-13T10:19:53.053Z,1007.40
2018-02-13T10:20:53.027Z,1007.41
2018-02-13T10:21:53.009Z,1007.42
2018-02-13T10:22:52.977Z,1007.40
2018-02-13T10:23:52.956Z,1007.41
2018-02-13T10:24:52.932Z,1007.40
2018-02-13T10:25:52.910Z,1007.41
2018-02-13T10:26:52.886Z,1007.35
2018-02-13T10:27:52.865Z,1007.36
2018-02-13T10:28:52.840Z,1007.41
2018-02-13T10:29:52.816Z,1007.35
2018-02-13T10:30:52.796Z,1007.36
2018-02-13T10:31:52.775Z,1007.32
2018-02-13T10:32:52.746Z,1007.33
2018-02-13T10:33:52.725Z,1007.37
2018-02-13T10:34:52.705Z,1007.37
2018-02-13T10:35:52.679Z,1007.39
2018-02-13T10:36:52.656Z,1007.35
2018-02-13T10:37:52.632Z,1007.29
2018-02-13T10:38:52.608Z,1007.30
2018-02-13T10:39:52.586Z,1007.30
2018-02-13T10:40:52.566Z,1007.31
2018-02-13T10:41:52.543Z,1007.31
2018-02-13T10:42:52.515Z,1007.31
2018-02-13T10:43:52.496Z,1007.32
2018-02-13T10:44:52.476Z,1007.31
2018-02-13T10:45:52.452Z,1007.31
2018-02-13T10:46:52.426Z,1007.31
2018-02-13T10:47:52.403Z,1007.31
2018-02-13T10:48:52.390Z,1007.30
2018-02-13T10:49:52.358Z,1007.31
2018-02-13T10:50:52.333Z,1007.31
2018-02-13T10:51:52.313Z,1007.28
2018-02-13T10:52:52.296Z,1007.27
2018-02-13T10:53:52.265Z,1007.24
2018-02-13T10:54:52.242Z,1007.23
2018-02-13T10:55:52.222Z,1007.22
2018-02-13T10:56:52.196Z,1007.21
2018-02-13T10:57:52.172Z,1007.22
2018-02-13T10:58:52.154Z,1007.19
2018-02-13T10:59:52.133Z,1007.16
2018-02-13T11:00:52.106Z,1007.16
2018-02-13T11:01:52.093Z,1007.14
2018-02-13T11:02:52.063Z,1007.09
2018-02-13T11:03:52.046Z,1007.13
2018-02-13T11:04:52.021Z,1007.08
2018-02-13T11:05:51.995Z,1007.10
2018-02-13T11:06:51.983Z,1007.10
2018-02-13T11:07:51.954Z,1007.05
2018-02-13T11:08:51.928Z,1007.01
2018-02-13T11:09:51.908Z,1007.01
2018-02-13T11:10:51.890Z,1007.02
2018-02-13T11:11:51.861Z,1006.97
2018-02-13T11:12:51.838Z,1006.97
2018-02-13T11:13:51.828Z,1006.98
2018-02-13T11:14:51.792Z,1006.96
2018-02-13T11:15:51.768Z,1006.92
2018-02-13T11:16:51.747Z,1006.95
2018-02-13T11:17:51.726Z,1006.93
2018-02-13T11:18:51.710Z,1006.94
2018-02-13T11:19:51.711Z,1006.93
2018-02-13T11:20:51.654Z,1006.85
2018-02-13T11:21:51.639Z,1006.86
2018-02-13T11:22:51.612Z,1006.90
2018-02-13T11:23:51.649Z,1006.88
2018-02-13T11:24:51.567Z,1006.83
2018-02-13T11:25:51.545Z,1006.82
2018-02-13T11:26:51.523Z,1006.82
2018-02-13T11:27:51.502Z,1006.80
2018-02-13T11:28:51.476Z,1006.80
2018-02-13T11:29:51.456Z,1006.79
2018-02-13T11:30:51.433Z,1006.79
2018-02-13T11:31:51.409Z,1006.73
2018-02-13T11:32:51.402Z,1006.73
2018-02-13T11:33:51.364Z,1006.82
2018-02-13T11:34:51.346Z,1006.77
2018-02-13T11:35:51.319Z,1006.69
2018-02-13T11:36:51.296Z,1006.71
2018-02-13T11:37:51.274Z,1006.74
2018-02-13T11:38:51.254Z,1006.76
2018-02-13T11:39:51.230Z,1006.77
2018-02-13T11:40:51.209Z,1006.63
2018-02-13T11:41:51.186Z,1006.77
2018-02-13T11:42:51.163Z,1006.79
2018-02-13T11:43:51.142Z,1006.78
2018-02-13T11:44:51.118Z,1006.72
2018-02-13T11:45:51.107Z,1006.77
2018-02-13T11:46:51.076Z,1006.79
2018-02-13T11:47:51.058Z,1006.74
2018-02-13T11:48:51.036Z,1006.77
2018-02-13T11:49:51.013Z,1006.73
2018-02-13T11:50:50.990Z,1006.72
2018-02-13T11:51:50.968Z,1006.77
2018-02-13T11:52:50.942Z,1006.73
2018-02-13T11:53:50.925Z,1006.76
2018-02-13T11:54:50.903Z,1006.71
2018-02-13T11:55:50.882Z,1006.80
2018-02-13T11:56:50.899Z,1006.75
2018-02-13T11:57:50.845Z,1006.80
2018-02-13T11:58:50.818Z,1006.74
2018-02-13T11:59:50.800Z,1006.79
2018-02-13T12:00:50.768Z,1006.74
2018-02-13T12:01:50.748Z,1006.75
2018-02-13T12:02:50.777Z,1006.68
2018-02-13T12:03:50.703Z,1006.72
2018-02-13T12:04:50.679Z,1006.69